Time;durP1;ratioP1;P1;durP2;ratioP2;P2;SDS_P1;SDS_P2;PMS_P1;PMS_P2;Temp;Humidity;BMP_temperature;BMP_pressure;BME280_temperature;BME280_humidity;BME280_pressure;Samples;Min_cycle;Max_cycle;Signal;HPM_P1;HPM_P2
2021/06/07 00:01:47;;;;;;;6.07;4.67;;;;;;;12.59;60.89;99846.75;512790;1092;116677;-59
2021/06/07 00:11:55;;;;;;;5.00;4.50;;;;;;;12.42;61.25;99843.47;511995;1093;117486;-58
2021/06/07 00:22:02;;;;;;;4.95;4.50;;;;;;;12.22;61.99;99841.33;512646;1092;116117;-58
2021/06/07 00:32:09;;;;;;;9.50;5.43;;;;;;;12.11;62.09;99842.06;530951;1092;116640;-57
2021/06/07 00:42:15;;;;;;;5.25;4.10;;;;;;;11.98;62.29;99847.25;526314;1092;116196;-58
2021/06/07 00:52:21;;;;;;;7.97;5.40;;;;;;;11.84;62.73;99843.73;512743;1093;116221;-58
2021/06/07 01:02:27;;;;;;;13.23;5.57;;;;;;;11.73;63.29;99844.45;523551;1092;115721;-59
2021/06/07 01:12:33;;;;;;;7.97;5.83;;;;;;;11.65;63.77;99838.84;530256;1092;116416;-59
2021/06/07 01:22:40;;;;;;;7.20;5.73;;;;;;;11.57;64.04;99830.59;524767;1092;116469;-58
2021/06/07 01:32:46;;;;;;;8.57;5.90;;;;;;;11.40;63.86;99837.79;518217;1092;116534;-58
2021/06/07 01:42:53;;;;;;;9.73;7.17;;;;;;;11.29;64.82;99837.63;520271;1092;116089;-58
2021/06/07 01:52:59;;;;;;;13.07;7.43;;;;;;;11.19;64.79;99832.08;530969;1093;117545;-58
2021/06/07 02:03:07;;;;;;;6.13;5.53;;;;;;;11.14;65.51;99836.80;520734;1092;116620;-58
2021/06/07 02:13:14;;;;;;;7.53;6.65;;;;;;;11.10;65.18;99830.88;513520;1092;115909;-58
2021/06/07 02:23:20;;;;;;;7.40;6.67;;;;;;;11.04;65.90;99833.91;516804;1091;116701;-58
2021/06/07 02:33:26;;;;;;;9.50;6.33;;;;;;;11.04;66.31;99826.03;528203;1092;116583;-60
2021/06/07 02:43:32;;;;;;;9.73;6.07;;;;;;;11.20;65.66;99828.55;531021;1092;115961;-59
2021/06/07 02:53:38;;;;;;;8.30;6.80;;;;;;;12.17;65.55;99825.84;529873;1092;116311;-55
2021/06/07 03:03:44;;;;;;;6.00;5.40;;;;;;;15.18;63.83;99820.83;530625;1092;115817;-57
2021/06/07 03:13:50;;;;;;;11.53;6.27;;;;;;;18.52;56.37;99824.08;530923;1092;116245;-58
2021/06/07 03:23:56;;;;;;;9.80;5.95;;;;;;;19.00;53.67;99824.06;529628;1093;116712;-58
2021/06/07 03:34:02;;;;;;;13.45;6.20;;;;;;;18.18;51.99;99829.88;518625;1093;116646;-57
2021/06/07 03:44:08;;;;;;;13.80;7.07;;;;;;;16.47;53.46;99829.74;512435;1091;116657;-58
2021/06/07 03:54:14;;;;;;;62.87;13.73;;;;;;;18.24;55.54;99841.77;522544;1093;117252;-58
2021/06/07 04:04:20;;;;;;;65.97;12.67;;;;;;;26.72;45.78;99835.72;531008;1093;117065;-59
2021/06/07 04:14:28;;;;;;;45.73;11.83;;;;;;;32.20;37.31;99830.60;531005;1092;116414;-60
2021/06/07 04:24:34;;;;;;;26.03;8.03;;;;;;;36.55;31.29;99830.59;530227;1092;116233;-59
2021/06/07 04:34:40;;;;;;;12.63;5.55;;;;;;;40.02;25.48;99839.20;531027;1092;117160;-58
2021/06/07 04:44:46;;;;;;;9.23;5.60;;;;;;;43.05;22.18;99835.78;530248;1092;118638;-58
2021/06/07 04:54:52;;;;;;;11.00;5.27;;;;;;;45.75;19.16;99839.31;530985;1093;115677;-58
2021/06/07 05:04:58;;;;;;;13.70;4.93;;;;;;;48.15;16.78;99840.83;531002;1092;115969;-60
2021/06/07 05:15:06;;;;;;;4.53;3.80;;;;;;;49.64;14.86;99837.67;519940;1093;116603;-58
2021/06/07 05:25:14;;;;;;;5.63;2.70;;;;;;;50.29;12.81;99835.69;531030;1092;116644;-59
2021/06/07 05:35:22;;;;;;;4.35;2.50;;;;;;;52.09;11.19;99850.83;530940;1093;116392;-59
2021/06/07 05:45:29;;;;;;;4.08;2.68;;;;;;;54.40;9.58;99841.72;530145;1092;116896;-60
2021/06/07 05:55:38;;;;;;;6.53;3.23;;;;;;;55.01;8.90;99849.64;530883;1092;117224;-59
2021/06/07 06:05:45;;;;;;;4.83;3.10;;;;;;;55.86;8.06;99841.75;530174;1092;116449;-59
2021/06/07 06:15:52;;;;;;;6.13;4.83;;;;;;;56.68;7.48;99839.17;530456;1092;115825;-58
2021/06/07 06:25:58;;;;;;;6.48;6.00;;;;;;;57.74;7.50;99847.00;529749;1093;116148;-59
2021/06/07 06:36:05;;;;;;;8.40;7.68;;;;;;;57.87;6.55;99850.89;529619;1092;116088;-63
2021/06/07 06:46:11;;;;;;;10.40;9.75;;;;;;;58.87;6.80;99858.70;530540;1092;116167;-62
2021/06/07 06:56:17;;;;;;;12.13;11.60;;;;;;;58.55;6.06;99861.91;530481;1093;116531;-61
2021/06/07 07:06:25;;;;;;;10.68;10.08;;;;;;;56.77;5.75;99855.66;529977;1092;117090;-63
2021/06/07 07:16:31;;;;;;;12.60;11.38;;;;;;;57.50;5.25;99867.34;530853;1092;116712;-65
2021/06/07 07:26:37;;;;;;;13.20;12.48;;;;;;;58.25;5.77;99871.95;522017;1092;10001474;-62
2021/06/07 07:36:43;;;;;;;16.70;15.50;;;;;;;57.60;5.33;99876.94;530841;1093;117022;-62
2021/06/07 07:46:52;;;;;;;4.18;3.90;;;;;;;54.32;5.55;99869.80;530901;1092;117153;-62
2021/06/07 07:56:58;;;;;;;2.53;2.20;;;;;;;40.96;10.31;99861.80;517821;1091;115000;-62
2021/06/07 08:07:05;;;;;;;4.73;2.33;;;;;;;35.44;13.71;99870.11;511860;1092;116819;-61
2021/06/07 08:17:16;;;;;;;3.17;2.70;;;;;;;31.55;16.92;99872.97;530739;1093;117259;-62
2021/06/07 08:27:22;;;;;;;3.77;2.27;;;;;;;29.91;19.16;99871.31;530104;1092;116489;-62
2021/06/07 08:37:28;;;;;;;3.17;2.57;;;;;;;29.05;20.64;99869.67;530587;1092;116291;-61
2021/06/07 08:47:35;;;;;;;16.20;3.58;;;;;;;28.60;21.38;99872.27;520049;1092;116421;-63
2021/06/07 08:57:44;;;;;;;5.40;2.67;;;;;;;28.22;22.33;99880.00;516316;1092;115864;-59
2021/06/07 09:07:57;;;;;;;7.73;4.60;;;;;;;27.94;23.25;99872.06;530895;1092;117573;-62
2021/06/07 09:18:04;;;;;;;3.47;2.70;;;;;;;28.07;23.16;99872.06;521746;1092;116494;-63
2021/06/07 09:28:19;;;;;;;3.33;2.50;;;;;;;27.80;22.13;99868.52;522532;1092;116147;-64
2021/06/07 09:38:25;;;;;;;2.17;1.93;;;;;;;27.45;22.02;99863.22;519214;1091;116504;-65
2021/06/07 09:48:31;;;;;;;2.73;1.93;;;;;;;27.14;21.85;99855.44;512232;1092;117428;-63
2021/06/07 09:58:37;;;;;;;1.90;1.30;;;;;;;26.69;21.62;99857.67;512760;1093;116820;-59
2021/06/07 10:08:46;;;;;;;4.33;2.00;;;;;;;26.36;22.69;99850.20;528539;1093;116426;-63
2021/06/07 10:18:51;;;;;;;3.00;1.30;;;;;;;26.19;21.62;99853.20;528736;1092;116874;-62
2021/06/07 10:28:58;;;;;;;1.70;1.60;;;;;;;26.01;22.06;99848.26;531004;1093;117241;-67
2021/06/07 10:39:29;;;;;;;1.10;1.10;;;;;;;25.90;22.06;99846.91;517000;1093;116573;-68
2021/06/07 10:49:39;;;;;;;3.50;1.40;;;;;;;25.70;21.86;99834.13;514389;1092;115776;-72
2021/06/07 10:59:50;;;;;;;6.70;2.50;;;;;;;25.76;22.55;99823.61;513931;1093;116314;-59
2021/06/07 11:10:27;;;;;;;2.30;2.10;;;;;;;25.69;23.02;99834.30;513203;1093;115830;-66
2021/06/07 11:20:35;;;;;;;2.58;1.38;;;;;;;25.57;23.05;99818.69;513342;1092;115940;-62
2021/06/07 11:30:42;;;;;;;5.57;2.10;;;;;;;25.98;23.56;99811.81;513699;1093;116871;-60
2021/06/07 11:40:48;;;;;;;2.57;2.03;;;;;;;25.64;23.86;99807.99;513220;1093;116193;-58
2021/06/07 11:51:29;;;;;;;8.87;3.00;;;;;;;25.71;23.98;99799.98;513623;1093;116123;-58
2021/06/07 12:01:36;;;;;;;4.07;2.03;;;;;;;26.02;23.03;99796.12;514253;1091;115552;-58
2021/06/07 12:11:44;;;;;;;3.43;1.75;;;;;;;26.00;23.01;99776.66;513832;1092;116973;-57
2021/06/07 12:21:50;;;;;;;2.20;1.98;;;;;;;26.27;22.50;99782.24;513740;1093;116082;-58
2021/06/07 12:32:13;;;;;;;4.07;1.90;;;;;;;26.36;22.60;99769.45;513639;1093;115819;-58
2021/06/07 12:42:19;;;;;;;1.90;1.80;;;;;;;26.43;23.86;99767.64;513349;1092;116183;-59
2021/06/07 12:52:25;;;;;;;3.30;2.10;;;;;;;26.15;24.03;99768.49;514362;1092;115686;-60
2021/06/07 13:02:35;;;;;;;4.73;1.73;;;;;;;25.78;24.43;99763.24;513771;1092;116331;-58
2021/06/07 13:12:41;;;;;;;3.60;2.30;;;;;;;25.87;23.98;99767.45;514516;1092;116409;-63
2021/06/07 13:22:47;;;;;;;4.43;2.13;;;;;;;25.93;24.12;99765.85;514605;1092;116581;-62
2021/06/07 13:32:54;;;;;;;1.80;1.70;;;;;;;25.54;24.75;99765.31;513743;1092;116216;-65
2021/06/07 13:43:01;;;;;;;2.27;1.80;;;;;;;25.58;24.83;99736.20;513765;1093;117206;-66
2021/06/07 13:53:08;;;;;;;2.05;1.90;;;;;;;25.79;24.67;99729.95;513676;1092;116003;-62
2021/06/07 14:03:36;;;;;;;4.15;1.80;;;;;;;25.43;24.47;99717.42;515302;1091;115949;-63
2021/06/07 14:13:43;;;;;;;1.93;1.73;;;;;;;25.17;25.01;99722.34;514614;1092;116119;-61
2021/06/07 14:34:13;;;;;;;3.90;1.60;;;;;;;25.24;25.03;99705.47;516867;1093;116331;-61
2021/06/07 14:44:20;;;;;;;3.15;1.80;;;;;;;25.07;24.95;99699.52;513853;1092;116418;-61
2021/06/07 14:54:26;;;;;;;3.43;1.90;;;;;;;24.96;25.35;99687.40;512976;1093;116416;-60
2021/06/07 15:04:33;;;;;;;2.33;1.73;;;;;;;25.00;25.32;99684.14;514184;1093;117092;-61
2021/06/07 15:14:39;;;;;;;8.33;1.93;;;;;;;24.95;25.50;99670.47;513012;1093;116084;-60
2021/06/07 15:24:45;;;;;;;4.33;1.77;;;;;;;25.10;25.15;99667.70;514195;1093;115495;-61
2021/06/07 15:35:22;;;;;;;2.67;1.90;;;;;;;25.15;26.10;99661.75;513906;1092;116334;-56
2021/06/07 15:45:28;;;;;;;7.87;1.97;;;;;;;25.22;25.44;99651.91;514507;1093;115543;-60
2021/06/07 15:55:35;;;;;;;3.00;2.27;;;;;;;25.15;25.86;99649.17;514490;1092;116056;-58
2021/06/07 16:05:41;;;;;;;2.87;2.27;;;;;;;25.11;25.36;99639.84;513553;1093;117350;-55
2021/06/07 16:15:53;;;;;;;6.63;1.70;;;;;;;25.16;24.99;99636.55;513965;1092;116696;-58
2021/06/07 16:26:00;;;;;;;2.27;1.93;;;;;;;24.95;25.75;99634.71;513918;1093;116477;-58
2021/06/07 16:36:08;;;;;;;3.60;2.23;;;;;;;24.82;25.65;99636.25;512902;1092;116359;-58
2021/06/07 16:46:14;;;;;;;4.03;1.77;;;;;;;25.81;25.34;99625.70;514077;1092;115952;-58
2021/06/07 16:56:20;;;;;;;4.23;1.57;;;;;;;25.08;25.78;99618.72;518933;1092;116082;-60
2021/06/07 17:06:27;;;;;;;2.10;1.90;;;;;;;24.66;26.39;99626.55;513482;1093;116024;-58
2021/06/07 17:16:33;;;;;;;3.37;2.33;;;;;;;24.47;26.58;99626.16;513866;1092;116247;-58
2021/06/07 17:26:39;;;;;;;3.87;2.00;;;;;;;24.24;26.91;99620.91;514108;1093;116660;-57
2021/06/07 17:36:47;;;;;;;4.28;1.83;;;;;;;24.01;26.72;99621.83;513919;1093;116221;-59
2021/06/07 17:46:53;;;;;;;1.90;1.80;;;;;;;23.82;26.60;99619.70;514018;1092;116606;-58
2021/06/07 17:57:00;;;;;;;4.37;2.23;;;;;;;24.63;26.84;99619.70;496109;1093;10001908;-59
2021/06/07 18:07:06;;;;;;;4.07;2.53;;;;;;;23.72;27.47;99628.87;513595;1092;115743;-59
2021/06/07 18:17:12;;;;;;;6.77;3.27;;;;;;;23.22;28.45;99639.17;513518;1092;116456;-58
2021/06/07 18:27:19;;;;;;;7.23;3.53;;;;;;;22.79;29.39;99644.98;512861;1091;115939;-58
2021/06/07 18:37:25;;;;;;;24.43;5.47;;;;;;;22.40;30.04;99655.53;513232;1091;115557;-61
2021/06/07 18:47:32;;;;;;;55.30;8.10;;;;;;;21.86;32.01;99669.59;512364;1092;116250;-60
2021/06/07 18:57:38;;;;;;;33.07;7.20;;;;;;;21.25;34.33;99678.78;512845;1093;116473;-59
2021/06/07 19:07:45;;;;;;;41.33;8.93;;;;;;;20.66;35.88;99682.31;513398;1093;116753;-60
2021/06/07 19:17:54;;;;;;;25.28;6.95;;;;;;;20.14;37.77;99688.59;512997;1093;116956;-60
2021/06/07 19:28:01;;;;;;;19.77;5.47;;;;;;;19.60;39.55;99701.05;514287;1093;117110;-60
2021/06/07 19:38:07;;;;;;;21.00;6.00;;;;;;;19.14;41.17;99709.12;513441;1093;115856;-60
2021/06/07 19:48:13;;;;;;;25.33;5.50;;;;;;;18.71;42.38;99715.97;515377;1093;116387;-59
2021/06/07 19:58:19;;;;;;;12.97;4.90;;;;;;;18.31;43.78;99715.30;513656;1092;116373;-60
2021/06/07 20:08:28;;;;;;;16.93;6.17;;;;;;;17.92;44.82;99717.04;515657;1093;116926;-61
2021/06/07 20:18:32;;;;;;;;;;;;;;;17.59;45.67;99719.17;513415;1092;116440;-61
2021/06/07 20:28:39;;;;;;;11.20;5.97;;;;;;;17.34;46.53;99723.25;513936;1093;156137;-60
2021/06/07 20:38:47;;;;;;;13.58;7.03;;;;;;;17.07;48.27;99722.95;512346;1092;116665;-59
2021/06/07 20:48:53;;;;;;;14.77;7.17;;;;;;;16.80;49.29;99719.10;513491;1092;117366;-62
2021/06/07 20:58:59;;;;;;;17.47;7.47;;;;;;;16.57;50.26;99714.98;513803;1091;116650;-60
2021/06/07 21:09:07;;;;;;;16.27;7.53;;;;;;;16.28;51.36;99718.34;514041;1093;117231;-60
2021/06/07 21:19:14;;;;;;;15.00;7.43;;;;;;;16.01;52.42;99725.04;514097;1092;116185;-60
2021/06/07 21:29:20;;;;;;;13.40;7.23;;;;;;;15.79;53.20;99732.11;513471;1093;116779;-57
2021/06/07 21:39:26;;;;;;;16.10;6.97;;;;;;;15.55;53.61;99735.84;496041;1092;20001673;-60
2021/06/07 21:49:32;;;;;;;11.97;7.20;;;;;;;15.32;54.40;99740.37;513374;1092;117089;-60
2021/06/07 21:59:39;;;;;;;14.83;6.83;;;;;;;15.08;55.46;99736.11;518302;1093;116359;-59
2021/06/07 22:09:45;;;;;;;12.53;6.73;;;;;;;14.83;56.36;99735.44;514700;1092;115519;-60
2021/06/07 22:19:51;;;;;;;14.40;7.67;;;;;;;14.84;56.11;99755.63;513821;1092;117383;-59
2021/06/07 22:29:58;;;;;;;15.67;7.77;;;;;;;14.78;56.35;99749.02;513242;1093;116513;-58
2021/06/07 22:40:05;;;;;;;8.87;6.57;;;;;;;14.61;57.21;99752.14;514299;1091;116314;-59
2021/06/07 22:50:12;;;;;;;10.50;7.40;;;;;;;14.42;57.70;99740.36;513229;1093;116521;-59
2021/06/07 23:00:21;;;;;;;11.57;6.33;;;;;;;14.26;58.36;99754.77;512455;1092;116708;-60
2021/06/07 23:10:27;;;;;;;13.83;7.43;;;;;;;14.13;58.72;99735.52;513345;1092;115801;-58
2021/06/07 23:20:33;;;;;;;11.77;7.00;;;;;;;13.95;59.27;99735.13;512829;1092;116671;-60
2021/06/07 23:30:39;;;;;;;12.47;6.47;;;;;;;13.84;59.96;99733.31;530845;1092;117163;-59
2021/06/07 23:40:46;;;;;;;10.53;6.03;;;;;;;13.76;60.25;99727.77;529580;1092;117335;-62
2021/06/07 23:50:52;;;;;;;10.13;6.40;;;;;;;13.67;60.65;99735.41;525900;1092;116178;-60
